createdAt,value
2023-03-10T00:01:30.412Z,30.30
2023-03-10T00:04:00.631Z,30.40
2023-03-10T00:06:34.090Z,29.40
2023-03-10T00:09:02.910Z,27.90
2023-03-10T00:11:31.081Z,29.80
2023-03-10T00:13:59.252Z,31.60
2023-03-10T00:16:28.974Z,31.40
2023-03-10T00:18:57.651Z,32.10
2023-03-10T00:21:28.385Z,32.10
2023-03-10T00:23:57.166Z,30.40
2023-03-10T00:26:28.202Z,27.60
2023-03-10T00:28:56.806Z,29.90
2023-03-10T00:31:27.286Z,30.40
2023-03-10T00:33:56.509Z,30.80
2023-03-10T00:36:30.019Z,31.10
2023-03-10T00:39:01.274Z,33.40
2023-03-10T00:41:31.939Z,33.10
2023-03-10T00:44:01.186Z,33.00
2023-03-10T00:46:30.346Z,31.10
2023-03-10T00:48:59.165Z,31.10
2023-03-10T00:51:27.652Z,32.80
2023-03-10T00:53:56.639Z,31.30
2023-03-10T00:56:26.169Z,29.20
2023-03-10T00:58:56.861Z,30.50
2023-03-10T01:04:13.844Z,30.90
2023-03-10T01:06:44.422Z,34.40
2023-03-10T01:11:40.981Z,30.20
2023-03-10T01:14:12.021Z,31.70
2023-03-10T01:16:40.295Z,30.10
2023-03-10T01:19:08.466Z,30.00
2023-03-10T01:21:38.879Z,30.60
2023-03-10T01:26:35.659Z,30.70
2023-03-10T01:29:03.816Z,30.60
2023-03-10T01:31:32.224Z,31.70
2023-03-10T01:34:00.371Z,32.70
2023-03-10T01:36:29.155Z,31.20
2023-03-10T01:38:58.040Z,31.10
2023-03-10T01:41:26.534Z,32.70
2023-03-10T01:43:56.634Z,31.30
2023-03-10T01:46:40.229Z,31.90
2023-03-10T01:49:14.695Z,32.70
2023-03-10T01:54:17.462Z,30.90
2023-03-10T01:56:46.373Z,32.30
2023-03-10T01:59:15.261Z,29.50
2023-03-10T02:01:43.687Z,29.60
2023-03-10T02:04:20.516Z,28.30
2023-03-10T02:06:52.078Z,30.70
2023-03-10T02:09:21.368Z,30.00
2023-03-10T02:11:49.948Z,31.40
2023-03-10T02:14:19.146Z,30.60
2023-03-10T02:16:47.676Z,31.50
2023-03-10T02:19:30.141Z,33.70
2023-03-10T02:22:09.458Z,32.50
2023-03-10T02:24:51.977Z,31.50
2023-03-10T02:27:22.885Z,30.50
2023-03-10T02:30:00.374Z,29.50
2023-03-10T02:32:35.047Z,31.50
2023-03-10T02:35:05.161Z,28.20
2023-03-10T02:37:35.573Z,29.20
2023-03-10T02:40:30.164Z,28.90
2023-03-10T02:43:23.218Z,27.20
2023-03-10T02:45:57.089Z,27.00
2023-03-10T02:48:31.701Z,29.00
2023-03-10T02:51:02.583Z,29.00
2023-03-10T02:53:30.854Z,30.60
2023-03-10T02:56:00.262Z,29.00
2023-03-10T02:58:31.603Z,29.80
2023-03-10T03:01:02.363Z,29.40
2023-03-10T03:03:31.346Z,27.70
2023-03-10T03:05:59.907Z,28.10
2023-03-10T03:08:28.908Z,27.60
2023-03-10T03:10:57.076Z,28.50
2023-03-10T03:13:25.450Z,27.60
2023-03-10T03:15:54.038Z,26.90
2023-03-10T03:18:23.536Z,26.40
2023-03-10T03:20:52.629Z,26.60
2023-03-10T03:23:20.901Z,29.60
2023-03-10T03:25:49.687Z,28.40
2023-03-10T03:28:19.905Z,29.30
2023-03-10T03:30:49.924Z,27.90
2023-03-10T03:33:18.502Z,27.90
2023-03-10T03:35:47.351Z,26.60
2023-03-10T03:38:17.614Z,25.70
2023-03-10T03:40:46.606Z,24.30
2023-03-10T03:43:16.011Z,25.00
2023-03-10T03:45:45.239Z,25.00
2023-03-10T03:48:15.011Z,23.80
2023-03-10T03:50:43.513Z,25.10
2023-03-10T03:53:20.268Z,26.00
2023-03-10T03:55:49.973Z,23.30
2023-03-10T03:58:19.685Z,25.00
2023-03-10T04:00:51.523Z,25.50
2023-03-10T04:03:20.455Z,26.20
2023-03-10T04:05:49.115Z,26.40
2023-03-10T04:08:17.592Z,26.30
2023-03-10T04:10:55.909Z,25.30
2023-03-10T04:13:26.327Z,24.60
2023-03-10T04:15:56.866Z,24.80
2023-03-10T04:18:25.541Z,24.60
2023-03-10T04:20:53.813Z,23.50
2023-03-10T04:23:22.103Z,23.60
2023-03-10T04:25:50.574Z,22.40
2023-03-10T04:28:19.684Z,20.50
2023-03-10T04:30:49.109Z,19.90
2023-03-10T04:33:18.671Z,20.70
2023-03-10T04:35:51.627Z,21.90
2023-03-10T04:38:23.830Z,23.60
2023-03-10T04:40:56.525Z,25.30
2023-03-10T04:43:29.315Z,25.00
2023-03-10T04:45:58.695Z,24.70
2023-03-10T04:48:27.577Z,22.50
2023-03-10T04:50:56.773Z,22.20
2023-03-10T04:53:25.449Z,23.10
2023-03-10T04:55:54.136Z,22.40
2023-03-10T04:58:23.127Z,21.10
2023-03-10T05:01:02.209Z,20.40
2023-03-10T05:03:31.761Z,18.30
2023-03-10T05:06:00.237Z,18.50
2023-03-10T05:08:29.034Z,18.90
2023-03-10T05:10:57.397Z,19.30
2023-03-10T05:13:25.570Z,17.50
2023-03-10T05:15:54.074Z,16.40
2023-03-10T05:18:22.325Z,13.90
2023-03-10T05:20:57.560Z,15.80
2023-03-10T05:23:27.269Z,15.20
2023-03-10T05:25:55.645Z,14.10
2023-03-10T05:28:24.741Z,13.90
2023-03-10T05:30:53.654Z,14.00
2023-03-10T05:33:22.015Z,15.10
2023-03-10T05:35:52.184Z,15.00
2023-03-10T05:38:20.603Z,13.80
2023-03-10T05:40:48.775Z,12.60
2023-03-10T05:43:17.853Z,10.30
2023-03-10T05:45:55.360Z,8.70
2023-03-10T05:48:24.229Z,7.50
2023-03-10T05:51:04.314Z,7.20
2023-03-10T05:53:33.599Z,7.70
2023-03-10T05:56:07.002Z,6.00
2023-03-10T05:58:35.375Z,6.50
2023-03-10T06:01:04.684Z,5.10
2023-03-10T06:03:33.652Z,5.40
2023-03-10T06:06:02.119Z,5.40
2023-03-10T06:08:30.727Z,5.30
2023-03-10T06:10:59.628Z,5.00
2023-03-10T06:13:27.882Z,4.50
2023-03-10T06:16:01.411Z,4.60
2023-03-10T06:18:30.279Z,4.80
2023-03-10T06:20:58.866Z,4.10
2023-03-10T06:23:27.242Z,3.90
2023-03-10T06:26:00.716Z,3.50
2023-03-10T06:28:33.274Z,3.30
2023-03-10T06:31:04.245Z,3.70
2023-03-10T06:33:32.825Z,3.50
2023-03-10T06:36:01.152Z,3.90
2023-03-10T06:38:30.604Z,3.40
2023-03-10T06:40:58.896Z,4.30
2023-03-10T06:43:27.153Z,4.10
2023-03-10T06:45:55.377Z,4.60
2023-03-10T06:48:23.602Z,4.20
2023-03-10T06:50:52.085Z,5.60
2023-03-10T06:53:21.586Z,4.40
2023-03-10T06:56:04.093Z,4.00
2023-03-10T06:58:34.627Z,4.30
2023-03-10T07:01:03.329Z,4.40
2023-03-10T07:03:31.693Z,4.60
2023-03-10T07:06:00.259Z,3.90
2023-03-10T07:08:29.459Z,4.30
2023-03-10T07:10:57.684Z,3.60
2023-03-10T07:13:26.018Z,3.60
2023-03-10T07:15:54.177Z,3.60
2023-03-10T07:18:22.661Z,4.20
2023-03-10T07:20:53.187Z,3.00
2023-03-10T07:25:57.109Z,2.90
2023-03-10T07:28:26.098Z,2.70
2023-03-10T07:30:56.759Z,2.60
2023-03-10T07:33:24.897Z,2.60
2023-03-10T07:35:53.118Z,2.60
2023-03-10T07:38:21.345Z,2.90
2023-03-10T07:40:49.425Z,2.70
2023-03-10T07:43:18.238Z,2.80
2023-03-10T07:45:46.826Z,2.60
2023-03-10T07:48:15.061Z,3.30
2023-03-10T07:50:43.232Z,2.80
2023-03-10T07:53:11.404Z,2.30
2023-03-10T07:55:39.583Z,2.50
2023-03-10T07:58:07.968Z,2.20
2023-03-10T08:00:36.161Z,1.90
2023-03-10T08:03:04.399Z,2.60
2023-03-10T08:05:32.571Z,4.50
2023-03-10T08:08:00.847Z,2.80
2023-03-10T08:10:29.027Z,3.00
2023-03-10T08:12:57.189Z,2.80
2023-03-10T08:15:26.692Z,3.10
2023-03-10T08:17:54.763Z,2.20
2023-03-10T08:20:23.139Z,2.50
2023-03-10T08:22:53.518Z,2.30
2023-03-10T08:27:50.115Z,3.00
2023-03-10T08:30:18.695Z,2.50
2023-03-10T08:32:46.902Z,2.90
2023-03-10T08:35:16.982Z,2.70
2023-03-10T08:37:45.260Z,2.90
2023-03-10T08:40:16.339Z,3.10
2023-03-10T08:42:47.036Z,2.90
2023-03-10T08:45:16.534Z,3.00
2023-03-10T08:47:45.122Z,2.50
2023-03-10T08:50:13.603Z,4.90
2023-03-10T08:52:41.873Z,3.00
2023-03-10T08:55:11.290Z,3.50
2023-03-10T08:57:39.650Z,3.40
2023-03-10T09:00:12.448Z,2.60
2023-03-10T09:02:40.766Z,3.10
2023-03-10T09:05:10.625Z,2.40
2023-03-10T09:07:39.016Z,2.60
2023-03-10T09:10:07.783Z,2.90
2023-03-10T09:12:38.741Z,2.80
2023-03-10T09:15:07.903Z,2.70
2023-03-10T09:17:37.233Z,2.80
2023-03-10T09:20:07.401Z,2.20
2023-03-10T09:22:35.508Z,1.80
2023-03-10T09:25:04.289Z,3.80
2023-03-10T09:27:32.462Z,5.90
2023-03-10T09:30:01.551Z,2.80
2023-03-10T09:32:30.181Z,2.30
2023-03-10T09:34:58.413Z,1.50
2023-03-10T09:37:26.688Z,1.50
2023-03-10T09:39:54.879Z,2.10
2023-03-10T09:42:37.832Z,2.30
2023-03-10T09:45:19.169Z,2.30
2023-03-10T09:47:55.758Z,1.60
2023-03-10T09:50:41.412Z,1.60
2023-03-10T09:54:04.373Z,1.50
2023-03-10T09:56:34.385Z,1.40
2023-03-10T09:59:14.639Z,1.30
2023-03-10T10:01:48.750Z,1.80
2023-03-10T10:04:26.084Z,1.80
2023-03-10T10:06:55.234Z,1.40
2023-03-10T10:09:23.305Z,1.80
2023-03-10T10:11:51.574Z,2.40
2023-03-10T10:14:28.809Z,1.90
2023-03-10T10:17:19.707Z,2.30
2023-03-10T10:19:48.247Z,2.10
2023-03-10T10:22:24.385Z,1.60
2023-03-10T10:25:01.690Z,1.20
2023-03-10T10:27:33.151Z,1.70
2023-03-10T10:30:31.263Z,1.70
2023-03-10T10:33:02.160Z,1.50
2023-03-10T10:35:36.373Z,1.10
2023-03-10T10:38:24.606Z,0.90
2023-03-10T10:41:07.165Z,1.20
2023-03-10T10:43:45.529Z,0.90
2023-03-10T10:46:16.001Z,1.00
2023-03-10T10:48:46.796Z,0.80
2023-03-10T10:51:21.010Z,1.40
2023-03-10T10:53:49.274Z,1.10
2023-03-10T10:56:19.029Z,0.80
2023-03-10T10:59:04.879Z,0.80
2023-03-10T11:01:53.014Z,0.80
2023-03-10T11:04:22.427Z,1.00
2023-03-10T11:06:51.302Z,1.00
2023-03-10T11:09:21.944Z,0.80
2023-03-10T11:11:59.216Z,1.20
2023-03-10T11:14:33.226Z,0.80
2023-03-10T11:17:05.212Z,1.10
2023-03-10T11:19:46.123Z,0.80
2023-03-10T11:22:37.800Z,1.10
2023-03-10T11:25:19.674Z,1.20
2023-03-10T11:28:12.627Z,1.00
2023-03-10T11:31:11.874Z,1.10
2023-03-10T11:33:49.112Z,0.90
2023-03-10T11:36:24.143Z,0.90
2023-03-10T11:38:58.438Z,1.20
2023-03-10T11:41:33.776Z,0.70
2023-03-10T11:44:07.709Z,0.80
2023-03-10T11:46:48.334Z,0.80
2023-03-10T11:49:17.671Z,0.80
2023-03-10T11:51:49.309Z,1.10
2023-03-10T11:54:27.093Z,0.90
2023-03-10T11:56:55.910Z,1.40
2023-03-10T11:59:27.393Z,2.00
2023-03-10T12:02:04.971Z,1.70
2023-03-10T12:04:43.467Z,1.20
2023-03-10T12:07:27.816Z,1.00
2023-03-10T12:10:01.143Z,1.80
2023-03-10T12:12:36.853Z,1.00
2023-03-10T12:15:10.561Z,1.20
2023-03-10T12:17:39.961Z,0.90
2023-03-10T12:20:13.168Z,0.70
2023-03-10T12:22:51.772Z,0.90
2023-03-10T12:25:29.264Z,1.00
2023-03-10T12:28:15.964Z,1.00
2023-03-10T12:30:59.804Z,0.80
2023-03-10T12:33:31.156Z,0.80
2023-03-10T12:36:27.424Z,1.00
2023-03-10T12:39:16.953Z,1.10
2023-03-10T12:41:48.205Z,0.70
2023-03-10T12:44:35.417Z,1.20
2023-03-10T12:47:09.677Z,0.90
2023-03-10T12:49:40.978Z,1.00
2023-03-10T12:52:39.840Z,0.80
2023-03-10T12:55:17.202Z,0.80
2023-03-10T12:57:54.441Z,0.80
2023-03-10T13:00:41.201Z,0.60
2023-03-10T13:03:35.684Z,0.80
2023-03-10T13:06:07.512Z,0.70
2023-03-10T13:08:54.098Z,0.80
2023-03-10T13:11:31.393Z,0.70
2023-03-10T13:14:22.192Z,0.90
2023-03-10T13:17:00.369Z,0.80
2023-03-10T13:19:34.635Z,0.90
2023-03-10T13:22:05.116Z,0.80
2023-03-10T13:24:39.230Z,0.70
2023-03-10T13:27:25.115Z,0.70
2023-03-10T13:29:59.648Z,1.10
2023-03-10T13:32:29.291Z,1.00
2023-03-10T13:34:59.076Z,1.20
2023-03-10T13:37:27.255Z,1.10
2023-03-10T13:40:07.915Z,1.00
2023-03-10T13:42:43.775Z,1.00
2023-03-10T13:45:21.053Z,0.80
2023-03-10T13:47:50.367Z,1.50
2023-03-10T13:50:18.830Z,1.40
2023-03-10T13:52:57.558Z,1.10
2023-03-10T13:55:27.671Z,1.00
2023-03-10T13:57:56.398Z,0.70
2023-03-10T14:00:26.331Z,0.70
2023-03-10T14:02:55.358Z,0.90
2023-03-10T14:05:45.849Z,1.20
2023-03-10T14:08:33.995Z,1.10
2023-03-10T14:11:29.912Z,1.00
2023-03-10T14:13:58.493Z,1.00
2023-03-10T14:17:02.223Z,0.80
2023-03-10T14:19:42.622Z,1.10
2023-03-10T14:22:43.906Z,1.20
2023-03-10T14:25:18.326Z,1.20
2023-03-10T14:27:49.258Z,1.20
2023-03-10T14:30:30.606Z,1.00
2023-03-10T14:33:00.827Z,0.70
2023-03-10T14:37:57.743Z,0.70
2023-03-10T14:40:26.200Z,0.80
2023-03-10T14:42:58.262Z,0.80
2023-03-10T14:45:33.634Z,0.70
2023-03-10T14:48:04.882Z,0.80
2023-03-10T14:50:33.630Z,0.90
2023-03-10T14:53:01.802Z,1.20
2023-03-10T14:55:30.178Z,1.60
2023-03-10T14:58:02.452Z,1.30
2023-03-10T15:00:31.237Z,1.70
2023-03-10T15:02:59.917Z,2.00
2023-03-10T15:05:45.168Z,2.10
2023-03-10T15:08:16.986Z,1.60
2023-03-10T15:10:51.024Z,1.70
2023-03-10T15:13:24.556Z,1.80
2023-03-10T15:15:53.382Z,1.20
2023-03-10T15:18:23.462Z,1.40
2023-03-10T15:20:51.777Z,1.60
2023-03-10T15:23:22.513Z,1.70
2023-03-10T15:25:50.861Z,1.70
2023-03-10T15:28:19.163Z,1.70
2023-03-10T15:30:47.541Z,1.80
2023-03-10T15:33:16.192Z,1.50
2023-03-10T15:35:44.510Z,1.50
2023-03-10T15:38:14.787Z,1.70
2023-03-10T15:40:44.899Z,1.50
2023-03-10T15:45:43.719Z,1.20
2023-03-10T15:48:12.222Z,1.40
2023-03-10T15:50:45.062Z,1.10
2023-03-10T15:53:13.541Z,1.50
2023-03-10T15:55:42.538Z,1.30
2023-03-10T15:58:11.637Z,1.40
2023-03-10T16:00:40.112Z,1.80
2023-03-10T16:03:08.278Z,1.80
2023-03-10T16:05:37.888Z,1.50
2023-03-10T16:08:06.565Z,1.90
2023-03-10T16:10:40.166Z,1.70
2023-03-10T16:13:08.340Z,1.90
2023-03-10T16:15:38.641Z,1.80
2023-03-10T16:18:06.732Z,1.40
2023-03-10T16:20:34.915Z,1.40
2023-03-10T16:23:03.080Z,1.40
2023-03-10T16:25:31.653Z,1.00
2023-03-10T16:27:59.841Z,0.80
2023-03-10T16:30:28.072Z,0.90
2023-03-10T16:33:00.981Z,1.20
2023-03-10T16:35:30.289Z,5.60
2023-03-10T16:38:01.325Z,1.40
2023-03-10T16:40:29.493Z,36.40
2023-03-10T16:42:57.567Z,15.30
2023-03-10T16:45:25.751Z,4.90
2023-03-10T16:47:53.908Z,2.90
2023-03-10T16:50:22.081Z,1.80
2023-03-10T16:52:55.268Z,1.30
2023-03-10T16:55:23.645Z,1.30
2023-03-10T16:57:51.818Z,1.40
2023-03-10T17:00:21.194Z,1.70
2023-03-10T17:02:50.012Z,1.80
2023-03-10T17:05:18.394Z,2.50
2023-03-10T17:07:55.516Z,2.00
2023-03-10T17:10:24.146Z,2.40
2023-03-10T17:12:52.334Z,2.90
2023-03-10T17:15:20.604Z,2.60
2023-03-10T17:17:48.764Z,3.10
2023-03-10T17:20:18.615Z,3.10
2023-03-10T17:22:46.750Z,2.90
2023-03-10T17:25:15.231Z,3.00
2023-03-10T17:27:43.753Z,2.90
2023-03-10T17:30:14.012Z,3.20
2023-03-10T17:32:42.287Z,3.20
2023-03-10T17:35:10.581Z,3.30
2023-03-10T17:37:38.853Z,3.30
2023-03-10T17:40:09.560Z,3.20
2023-03-10T17:42:37.761Z,3.20
2023-03-10T17:45:06.995Z,2.90
2023-03-10T17:47:35.550Z,2.70
2023-03-10T17:50:04.039Z,2.40
2023-03-10T17:52:32.293Z,2.50
2023-03-10T17:55:01.190Z,2.50
2023-03-10T17:57:29.357Z,2.30
2023-03-10T17:59:57.533Z,2.60
2023-03-10T18:02:26.043Z,2.20
2023-03-10T18:04:54.487Z,1.90
2023-03-10T18:07:22.558Z,2.20
2023-03-10T18:09:50.735Z,3.10
2023-03-10T18:12:18.906Z,1.80
2023-03-10T18:14:47.076Z,2.50
2023-03-10T18:17:15.250Z,2.30
2023-03-10T18:19:43.421Z,2.00
2023-03-10T18:22:11.695Z,2.20
2023-03-10T18:24:39.868Z,1.40
2023-03-10T18:27:08.250Z,1.90
2023-03-10T18:29:36.625Z,2.60
2023-03-10T18:32:05.199Z,1.40
2023-03-10T18:34:33.393Z,1.40
2023-03-10T18:37:01.662Z,0.70
2023-03-10T18:39:30.126Z,0.90
2023-03-10T18:41:58.202Z,0.40
2023-03-10T18:44:26.368Z,0.40
2023-03-10T18:46:54.540Z,0.50
2023-03-10T18:49:22.923Z,0.50
2023-03-10T18:51:51.192Z,0.60
2023-03-10T18:54:19.671Z,0.60
2023-03-10T18:56:47.845Z,1.30
2023-03-10T18:59:16.017Z,1.50
2023-03-10T19:01:44.239Z,1.70
2023-03-10T19:04:12.566Z,0.80
2023-03-10T19:06:40.943Z,0.80
2023-03-10T19:09:09.216Z,1.30
2023-03-10T19:11:38.677Z,1.10
2023-03-10T19:14:07.212Z,1.40
2023-03-10T19:16:39.884Z,1.10
2023-03-10T19:19:08.048Z,1.00
2023-03-10T19:21:37.555Z,1.40
2023-03-10T19:24:06.229Z,1.40
2023-03-10T19:26:34.508Z,1.80
2023-03-10T19:29:03.518Z,1.50
2023-03-10T19:31:31.792Z,1.40
2023-03-10T19:33:59.949Z,1.30
2023-03-10T19:36:29.670Z,1.10
2023-03-10T19:38:58.345Z,1.50
2023-03-10T19:41:26.717Z,2.40
2023-03-10T19:43:54.891Z,2.10
2023-03-10T19:46:23.092Z,1.60
2023-03-10T19:48:51.266Z,1.70
2023-03-10T19:51:22.700Z,2.10
2023-03-10T19:53:52.666Z,2.10
2023-03-10T19:56:21.795Z,25.10
2023-03-10T19:58:50.488Z,5.70
2023-03-10T20:01:24.513Z,5.50
2023-03-10T20:03:54.891Z,3.50
2023-03-10T20:06:23.713Z,3.10
2023-03-10T20:08:52.382Z,4.10
2023-03-10T20:11:21.786Z,4.20
2023-03-10T20:13:52.313Z,4.30
2023-03-10T20:21:19.080Z,2.60
2023-03-10T20:23:48.723Z,4.00
2023-03-10T20:26:18.205Z,3.90
2023-03-10T20:28:46.674Z,2.40
2023-03-10T20:31:20.148Z,3.00
2023-03-10T20:33:48.543Z,2.40
2023-03-10T20:36:16.717Z,3.10
2023-03-10T20:38:46.540Z,3.80
2023-03-10T20:41:16.244Z,3.80
2023-03-10T20:43:44.528Z,5.60
2023-03-10T20:46:13.550Z,4.80
2023-03-10T20:48:41.775Z,6.40
2023-03-10T20:51:09.947Z,5.10
2023-03-10T20:53:38.124Z,4.70
2023-03-10T20:56:10.403Z,4.50
2023-03-10T20:58:38.725Z,4.80
2023-03-10T21:01:07.110Z,4.40
2023-03-10T21:03:35.419Z,4.80
2023-03-10T21:06:03.790Z,4.90
2023-03-10T21:08:31.964Z,5.60
2023-03-10T21:11:00.364Z,6.10
2023-03-10T21:13:28.614Z,5.40
2023-03-10T21:15:56.786Z,6.30
2023-03-10T21:18:26.088Z,5.50
2023-03-10T21:20:54.273Z,5.60
2023-03-10T21:23:22.537Z,6.60
2023-03-10T21:25:50.712Z,5.60
2023-03-10T21:28:19.001Z,5.30
2023-03-10T21:30:47.179Z,5.10
2023-03-10T21:33:15.534Z,5.10
2023-03-10T21:35:43.719Z,5.20
2023-03-10T21:38:11.986Z,5.30
2023-03-10T21:40:40.369Z,5.20
2023-03-10T21:43:09.667Z,5.30
2023-03-10T21:45:38.658Z,5.30
2023-03-10T21:48:06.926Z,5.70
2023-03-10T21:50:35.213Z,5.30
2023-03-10T21:53:03.660Z,5.30
2023-03-10T21:55:34.718Z,6.40
2023-03-10T21:58:03.606Z,5.60
2023-03-10T22:00:32.604Z,6.50
2023-03-10T22:03:00.773Z,6.20
2023-03-10T22:05:29.150Z,6.30
2023-03-10T22:07:57.422Z,6.00
2023-03-10T22:10:25.697Z,6.10
2023-03-10T22:12:53.868Z,6.20
2023-03-10T22:15:25.321Z,6.10
2023-03-10T22:17:55.428Z,6.50
2023-03-10T22:20:26.459Z,6.00
2023-03-10T22:22:54.648Z,6.80
2023-03-10T22:25:23.336Z,7.60
2023-03-10T22:27:53.968Z,8.10
2023-03-10T22:30:26.330Z,8.30
2023-03-10T22:32:55.274Z,7.60
2023-03-10T22:35:24.311Z,6.40
2023-03-10T22:37:52.789Z,6.80
2023-03-10T22:40:23.219Z,7.00
2023-03-10T22:45:23.642Z,7.30
2023-03-10T22:47:57.261Z,8.20
2023-03-10T22:50:32.646Z,8.30
2023-03-10T22:53:06.429Z,9.00
2023-03-10T22:55:37.640Z,9.30
2023-03-10T22:58:07.657Z,8.90
2023-03-10T23:00:36.245Z,7.80
2023-03-10T23:03:05.925Z,7.30
2023-03-10T23:05:34.443Z,8.00
2023-03-10T23:08:02.504Z,8.50
2023-03-10T23:10:32.704Z,8.60
2023-03-10T23:13:02.739Z,8.90
2023-03-10T23:15:33.788Z,8.20
2023-03-10T23:18:02.262Z,7.70
2023-03-10T23:20:34.116Z,7.20
2023-03-10T23:23:04.006Z,6.40
2023-03-10T23:25:41.011Z,5.80
2023-03-10T23:28:10.932Z,6.30
2023-03-10T23:30:41.036Z,6.50
2023-03-10T23:33:12.564Z,6.10
2023-03-10T23:35:41.336Z,5.90
2023-03-10T23:38:10.159Z,7.60
2023-03-10T23:40:38.636Z,6.10
2023-03-10T23:43:08.151Z,5.30
2023-03-10T23:45:38.317Z,4.90
2023-03-10T23:48:09.278Z,4.80
2023-03-10T23:50:40.446Z,4.80
2023-03-10T23:53:10.558Z,4.30
2023-03-10T23:55:40.933Z,4.30
2023-03-10T23:58:10.277Z,3.10
